Time;durP1;ratioP1;P1;durP2;ratioP2;P2;SDS_P1;SDS_P2;PMS_P1;PMS_P2;Temp;Humidity;BMP_temperature;BMP_pressure;BME280_temperature;BME280_humidity;BME280_pressure;Samples;Min_cycle;Max_cycle;Signal;HPM_P1;HPM_P2
2023/06/22 00:00:59;;;;;;;33.37;23.60;;;;;;;20.46;84.42;100242.34;4234913;28;20301;-73
2023/06/22 00:03:26;;;;;;;32.80;24.47;;;;;;;20.39;84.62;100237.69;4261104;28;20246;-70
2023/06/22 00:05:53;;;;;;;37.90;26.27;;;;;;;20.36;84.98;100237.28;4254016;28;21666;-73
2023/06/22 00:08:20;;;;;;;29.33;23.40;;;;;;;20.33;85.08;100254.22;4249193;28;20280;-71
2023/06/22 00:10:46;;;;;;;31.87;23.50;;;;;;;20.32;84.83;100253.34;4220276;28;20241;-72
2023/06/22 00:13:14;;;;;;;31.93;24.40;;;;;;;20.40;84.44;100246.78;4236453;28;20471;-70
2023/06/22 00:15:41;;;;;;;38.33;26.20;;;;;;;20.34;84.47;100245.75;4247928;28;20289;-71
2023/06/22 00:18:10;;;;;;;34.87;26.07;;;;;;;20.44;83.73;100242.53;4257962;28;20468;-73
2023/06/22 00:20:37;;;;;;;34.33;27.10;;;;;;;20.40;84.02;100266.03;4252769;28;20232;-73
2023/06/22 00:23:08;;;;;;;35.13;25.93;;;;;;;20.35;84.51;100252.94;4251041;28;20234;-72
2023/06/22 00:25:36;;;;;;;34.27;26.23;;;;;;;20.31;84.65;100256.31;4225152;28;20238;-73
2023/06/22 00:28:04;;;;;;;37.53;28.07;;;;;;;20.10;85.46;100255.53;4225973;28;20421;-72
2023/06/22 00:30:31;;;;;;;35.80;26.90;;;;;;;20.17;85.33;100245.38;4234143;28;20240;-75
2023/06/22 00:32:58;;;;;;;33.00;24.40;;;;;;;20.18;85.06;100241.56;4230247;28;20545;-72
2023/06/22 00:35:29;;;;;;;36.17;24.53;;;;;;;20.17;85.33;100228.88;4236112;28;22840;-73
2023/06/22 00:38:04;;;;;;;33.73;26.10;;;;;;;20.31;84.98;100232.44;4221556;28;20299;-74
2023/06/22 00:40:32;;;;;;;34.37;25.60;;;;;;;20.37;84.15;100237.06;4235570;28;21314;-73
2023/06/22 00:42:59;;;;;;;36.30;24.47;;;;;;;20.37;84.24;100239.81;4239436;28;21473;-71
2023/06/22 00:45:26;;;;;;;33.63;24.77;;;;;;;20.34;84.46;100229.25;4251573;28;20484;-71
2023/06/22 00:47:55;;;;;;;34.53;25.13;;;;;;;20.25;84.73;100225.03;4247203;28;22407;-75
2023/06/22 00:50:22;;;;;;;33.80;26.13;;;;;;;20.25;84.68;100236.91;4235904;28;20246;-72
2023/06/22 00:52:58;;;;;;;32.03;25.03;;;;;;;20.27;84.57;100240.28;4219905;28;20271;-72
2023/06/22 00:55:28;;;;;;;37.27;25.73;;;;;;;20.34;83.91;100222.91;4232064;28;20238;-72
2023/06/22 00:57:55;;;;;;;33.67;25.13;;;;;;;20.26;84.58;100233.09;4223766;28;20227;-72
2023/06/22 01:00:25;;;;;;;30.20;23.67;;;;;;;20.24;84.78;100223.38;4214477;28;20243;-73
2023/06/22 01:02:53;;;;;;;35.10;25.30;;;;;;;20.10;85.05;100220.66;4236077;28;20316;-72
2023/06/22 01:05:21;;;;;;;34.50;25.60;;;;;;;20.23;85.24;100214.28;4233852;28;20235;-72
2023/06/22 01:07:58;;;;;;;35.67;25.70;;;;;;;20.24;85.08;100213.22;4243325;28;20231;-75
2023/06/22 01:10:32;;;;;;;41.67;25.60;;;;;;;20.17;85.00;100201.41;4231328;28;21735;-73
2023/06/22 01:13:18;;;;;;;37.60;27.47;;;;;;;20.05;85.70;100209.47;4222019;28;25411;-73
2023/06/22 01:16:01;;;;;;;35.67;25.70;;;;;;;20.11;85.36;100208.59;4232303;28;20291;-72
2023/06/22 01:18:30;;;;;;;36.80;27.33;;;;;;;20.19;85.01;100202.03;4220525;28;20242;-72
2023/06/22 01:20:57;;;;;;;36.30;26.40;;;;;;;20.04;85.90;100207.78;4234455;28;22813;-73
2023/06/22 01:23:50;;;;;;;35.30;26.30;;;;;;;20.43;84.94;100205.97;4233384;28;20343;-74
2023/06/22 01:26:21;;;;;;;35.27;25.90;;;;;;;20.21;85.43;100210.06;4233795;28;20242;-71
2023/06/22 01:28:53;;;;;;;38.47;28.53;;;;;;;20.13;85.96;100197.38;4246369;28;21194;-73
2023/06/22 01:31:22;;;;;;;36.70;28.57;;;;;;;20.31;85.54;100195.84;4237386;28;20271;-72
2023/06/22 01:33:52;;;;;;;39.27;28.63;;;;;;;20.26;85.36;100197.38;4228766;28;21118;-72
2023/06/22 01:36:20;;;;;;;41.87;29.17;;;;;;;20.15;86.12;100192.53;4223013;28;20223;-71
2023/06/22 01:38:47;;;;;;;37.97;26.57;;;;;;;20.07;86.66;100206.50;4222881;28;21807;-72
2023/06/22 01:41:15;;;;;;;40.13;29.10;;;;;;;19.99;87.34;100204.84;4239330;28;20291;-72
2023/06/22 01:43:42;;;;;;;36.70;26.77;;;;;;;19.92;87.03;100199.34;4245370;28;20255;-75
2023/06/22 01:46:09;;;;;;;39.20;30.07;;;;;;;19.78;86.93;100200.41;4217886;28;20543;-72
2023/06/22 01:48:36;;;;;;;38.97;27.17;;;;;;;19.67;87.72;100209.31;4206978;28;20235;-72
2023/06/22 01:51:03;;;;;;;38.13;27.60;;;;;;;19.57;87.77;100207.84;4218205;28;20338;-72
2023/06/22 01:53:29;;;;;;;39.93;28.83;;;;;;;19.50;88.36;100215.25;4252042;28;20234;-72
2023/06/22 01:55:57;;;;;;;43.07;30.90;;;;;;;19.47;88.29;100212.91;4241805;28;20451;-74
2023/06/22 01:58:26;;;;;;;36.43;27.83;;;;;;;19.50;88.60;100228.97;4226149;28;20359;-73
2023/06/22 02:01:12;;;;;;;43.80;31.47;;;;;;;19.40;89.02;100237.63;4223749;28;21782;-74
2023/06/22 02:03:44;;;;;;;48.50;31.87;;;;;;;19.11;90.71;100239.69;4236570;28;21505;-75
2023/06/22 02:06:23;;;;;;;43.47;31.90;;;;;;;19.05;90.86;100240.53;4230032;28;21028;-72
2023/06/22 02:08:53;;;;;;;50.87;34.07;;;;;;;18.96;92.09;100244.50;4210832;28;21634;-76
2023/06/22 02:11:21;;;;;;;50.53;36.70;;;;;;;18.86;92.70;100242.16;4239237;28;20246;-72
2023/06/22 02:13:48;;;;;;;53.30;37.23;;;;;;;18.90;92.68;100251.66;4229005;28;20274;-74
2023/06/22 02:16:16;;;;;;;53.83;35.87;;;;;;;18.84;93.04;100242.38;4232998;28;21368;-73
2023/06/22 02:18:47;;;;;;;55.80;39.63;;;;;;;18.83;93.60;100245.31;4215749;28;20233;-72
2023/06/22 02:21:14;;;;;;;56.97;39.07;;;;;;;18.80;93.62;100251.22;4223148;28;26389;-75
2023/06/22 02:23:40;;;;;;;55.23;40.47;;;;;;;18.86;92.98;100250.38;4231002;28;21992;-73
2023/06/22 02:26:07;;;;;;;57.07;40.00;;;;;;;18.86;93.23;100247.63;4230351;28;20238;-70
2023/06/22 02:28:34;;;;;;;58.13;40.57;;;;;;;18.81;93.48;100264.69;4227712;28;20239;-74
2023/06/22 02:31:00;;;;;;;58.70;41.67;;;;;;;18.73;94.35;100262.13;4228459;28;20336;-73
2023/06/22 02:33:27;;;;;;;61.17;42.57;;;;;;;18.75;94.11;100272.94;4238569;28;20805;-74
2023/06/22 02:35:54;;;;;;;60.17;43.10;;;;;;;18.66;94.63;100270.34;4243367;28;20577;-73
2023/06/22 02:38:21;;;;;;;65.17;44.67;;;;;;;18.62;95.30;100271.81;4236278;28;20266;-73
2023/06/22 02:40:47;;;;;;;70.57;44.67;;;;;;;18.67;94.97;100277.53;4255778;28;20241;-70
2023/06/22 02:43:14;;;;;;;73.07;48.50;;;;;;;18.68;95.34;100294.81;4250144;28;20246;-72
2023/06/22 02:45:41;;;;;;;74.83;48.23;;;;;;;18.72;95.04;100281.56;4249471;28;20245;-74
2023/06/22 02:48:07;;;;;;;82.37;50.57;;;;;;;18.69;95.66;100289.13;4243913;28;20878;-72
2023/06/22 02:50:35;;;;;;;82.07;52.97;;;;;;;18.69;96.41;100288.28;4214066;28;20293;-73
2023/06/22 02:53:02;;;;;;;91.00;56.53;;;;;;;18.75;96.55;100294.88;4241286;28;20239;-72
2023/06/22 02:55:28;;;;;;;95.00;59.10;;;;;;;18.70;96.83;100303.69;4227119;28;20563;-74
2023/06/22 02:57:57;;;;;;;97.87;57.70;;;;;;;18.74;96.96;100299.47;4232622;28;20231;-71
2023/06/22 03:00:30;;;;;;;88.73;55.50;;;;;;;18.83;96.83;100297.44;4231919;28;20230;-72
2023/06/22 03:02:57;;;;;;;98.77;59.77;;;;;;;18.79;97.25;100299.75;4243406;28;20239;-70
2023/06/22 03:05:24;;;;;;;94.17;58.37;;;;;;;18.83;97.11;100298.25;4233790;28;21122;-74
2023/06/22 03:07:51;;;;;;;91.97;56.50;;;;;;;18.84;97.21;100310.94;4278612;28;20238;-74
2023/06/22 03:10:18;;;;;;;87.83;55.60;;;;;;;19.01;96.92;100318.81;4259883;28;21728;-74
2023/06/22 03:12:44;;;;;;;89.73;58.40;;;;;;;18.89;97.05;100324.03;4248682;28;20245;-71
2023/06/22 03:15:12;;;;;;;94.43;57.83;;;;;;;18.99;96.79;100319.03;4280161;28;20340;-71
2023/06/22 03:17:40;;;;;;;93.57;58.47;;;;;;;18.90;97.01;100328.47;4252243;28;20339;-74
2023/06/22 03:20:14;;;;;;;94.10;57.90;;;;;;;18.96;97.14;100324.06;4250171;28;20634;-72
2023/06/22 03:22:41;;;;;;;93.67;57.57;;;;;;;18.95;97.10;100320.50;4235307;28;20944;-73
2023/06/22 03:25:15;;;;;;;92.80;56.67;;;;;;;18.89;97.20;100321.28;4248306;28;23913;-74
2023/06/22 03:27:42;;;;;;;89.33;56.23;;;;;;;18.93;97.57;100317.09;4263859;28;22182;-73
2023/06/22 03:30:10;;;;;;;87.87;53.80;;;;;;;19.09;96.65;100317.78;4245370;28;22567;-75
2023/06/22 03:32:37;;;;;;;87.27;54.47;;;;;;;19.15;96.17;100323.31;4232000;28;20417;-71
2023/06/22 03:35:06;;;;;;;87.87;54.57;;;;;;;19.13;96.47;100321.81;4261047;28;22913;-72
2023/06/22 03:37:32;;;;;;;81.73;53.47;;;;;;;19.07;96.82;100328.13;4246973;28;20246;-71
2023/06/22 03:39:59;;;;;;;77.30;51.57;;;;;;;19.22;96.73;100334.28;4228376;28;20314;-72
2023/06/22 03:42:27;;;;;;;77.13;50.43;;;;;;;19.31;96.03;100337.69;4254545;28;20243;-72
2023/06/22 03:44:54;;;;;;;80.70;50.50;;;;;;;19.28;95.89;100347.19;4258575;28;22811;-71
2023/06/22 03:47:20;;;;;;;79.17;49.33;;;;;;;19.35;95.12;100338.13;4232306;28;22120;-71
2023/06/22 03:49:47;;;;;;;71.03;48.53;;;;;;;19.43;94.59;100349.75;4244643;28;20334;-73
2023/06/22 03:52:14;;;;;;;65.97;45.50;;;;;;;19.45;94.35;100344.03;4237960;28;20573;-73
2023/06/22 03:54:40;;;;;;;74.53;46.87;;;;;;;19.40;94.76;100344.69;4247141;28;20599;-76
2023/06/22 03:57:07;;;;;;;66.20;43.03;;;;;;;19.58;94.68;100345.97;4245543;28;21178;-70
2023/06/22 03:59:34;;;;;;;77.40;48.00;;;;;;;19.37;94.53;100345.09;4240879;28;20323;-74
2023/06/22 04:02:00;;;;;;;62.27;43.73;;;;;;;19.52;94.86;100335.81;4237066;28;20246;-77
2023/06/22 04:04:27;;;;;;;70.47;45.63;;;;;;;19.73;93.37;100351.28;4230883;28;20234;-69
2023/06/22 04:06:54;;;;;;;60.53;41.37;;;;;;;19.90;92.83;100347.06;4237572;28;22573;-70
2023/06/22 04:09:21;;;;;;;63.43;43.37;;;;;;;19.93;91.67;100356.81;4228592;28;20228;-72
2023/06/22 04:11:48;;;;;;;57.07;37.83;;;;;;;19.92;92.54;100360.63;4242055;28;20238;-70
2023/06/22 04:14:15;;;;;;;56.93;40.83;;;;;;;20.09;91.78;100356.34;4241840;28;20292;-71
2023/06/22 04:16:41;;;;;;;60.57;41.73;;;;;;;20.10;90.35;100363.56;4231156;28;23444;-71
2023/06/22 04:19:13;;;;;;;59.97;41.37;;;;;;;20.03;91.00;100357.22;4230235;28;20299;-72
2023/06/22 04:21:40;;;;;;;62.43;39.63;;;;;;;20.08;91.27;100364.81;4230638;28;20299;-68
2023/06/22 04:24:07;;;;;;;62.77;40.50;;;;;;;19.98;91.48;100364.44;4239797;28;22465;-69
2023/06/22 04:26:36;;;;;;;63.13;41.57;;;;;;;19.90;91.53;100371.78;4228068;28;20274;-71
2023/06/22 04:29:05;;;;;;;60.43;42.13;;;;;;;19.82;92.61;100377.50;4246740;28;22263;-71
2023/06/22 04:31:36;;;;;;;63.70;41.70;;;;;;;19.83;91.82;100376.41;4230458;28;21437;-70
2023/06/22 04:34:07;;;;;;;63.43;40.13;;;;;;;20.00;91.32;100371.41;4247652;28;20239;-69
2023/06/22 04:36:37;;;;;;;59.37;41.17;;;;;;;20.06;90.95;100378.78;4243287;28;20326;-73
2023/06/22 04:39:09;;;;;;;54.27;38.53;;;;;;;19.91;91.13;100373.47;4255318;28;20411;-69
2023/06/22 04:41:46;;;;;;;61.37;40.50;;;;;;;19.88;91.19;100362.06;4228076;28;20239;-71
2023/06/22 04:44:24;;;;;;;59.50;38.37;;;;;;;19.98;91.27;100373.50;4234495;28;20599;-69
2023/06/22 04:47:03;;;;;;;52.03;36.23;;;;;;;20.22;90.36;100372.00;4238554;28;22276;-69
2023/06/22 04:49:33;;;;;;;53.90;35.80;;;;;;;20.24;89.02;100358.91;4238092;28;20353;-68
2023/06/22 04:52:01;;;;;;;50.83;34.63;;;;;;;20.07;90.10;100369.50;4222549;28;20229;-69
2023/06/22 04:54:27;;;;;;;48.73;34.43;;;;;;;20.06;90.35;100367.78;4232851;28;20547;-68
2023/06/22 04:56:56;;;;;;;53.00;35.27;;;;;;;19.91;91.44;100369.91;4232731;28;20588;-67
2023/06/22 04:59:28;;;;;;;51.80;33.27;;;;;;;20.05;90.33;100368.84;4238694;28;20236;-68
2023/06/22 05:01:58;;;;;;;49.50;35.00;;;;;;;20.03;90.83;100361.88;4232079;28;20231;-71
2023/06/22 05:04:27;;;;;;;43.63;31.30;;;;;;;20.13;90.79;100372.44;4227472;28;20243;-69
2023/06/22 05:06:54;;;;;;;46.47;32.17;;;;;;;20.25;89.41;100367.97;4231416;28;21889;-70
2023/06/22 05:09:22;;;;;;;45.73;31.70;;;;;;;20.36;89.09;100367.34;4240518;28;20265;-73
2023/06/22 05:11:48;;;;;;;39.60;28.63;;;;;;;20.57;88.23;100371.75;4235818;28;20231;-70
2023/06/22 05:14:15;;;;;;;47.27;30.90;;;;;;;20.56;87.58;100367.31;4223445;28;20243;-75
2023/06/22 05:16:42;;;;;;;42.67;28.20;;;;;;;20.58;87.97;100376.16;4251681;28;20990;-72
2023/06/22 05:19:10;;;;;;;43.57;30.60;;;;;;;20.59;87.20;100358.59;4231656;28;20352;-70
2023/06/22 05:21:37;;;;;;;37.77;26.03;;;;;;;20.96;86.21;100380.13;4239517;28;26102;-72
2023/06/22 05:24:05;;;;;;;36.60;27.90;;;;;;;20.88;85.53;100374.84;4239885;28;20237;-75
2023/06/22 05:26:33;;;;;;;41.57;27.80;;;;;;;20.73;87.05;100370.47;4245796;28;20322;-70
2023/06/22 05:29:02;;;;;;;39.70;27.13;;;;;;;21.00;86.42;100369.50;4229306;28;20324;-69
2023/06/22 05:31:29;;;;;;;38.77;26.73;;;;;;;21.06;84.86;100376.91;4232284;28;20283;-70
2023/06/22 05:33:56;;;;;;;34.57;25.23;;;;;;;21.23;84.93;100382.72;4227509;28;20298;-67
2023/06/22 05:36:26;;;;;;;34.80;24.43;;;;;;;21.26;84.98;100384.22;4237493;28;20294;-69
2023/06/22 05:38:53;;;;;;;39.00;26.43;;;;;;;21.08;85.71;100391.28;4245312;28;20662;-68
2023/06/22 05:41:19;;;;;;;38.37;27.00;;;;;;;21.05;85.54;100391.72;4225336;28;21710;-69
2023/06/22 05:43:46;;;;;;;39.63;26.10;;;;;;;20.82;86.77;100394.97;4237593;28;20618;-67
2023/06/22 05:46:13;;;;;;;37.83;25.63;;;;;;;20.92;86.99;100403.63;4212271;28;20312;-73
2023/06/22 05:48:39;;;;;;;36.10;25.83;;;;;;;20.82;86.63;100403.22;4246411;28;22846;-70
2023/06/22 05:51:06;;;;;;;31.30;23.70;;;;;;;20.99;85.80;100398.94;4239928;28;20241;-69
2023/06/22 05:53:33;;;;;;;41.23;24.63;;;;;;;20.82;86.14;100398.56;4241410;28;20428;-69
2023/06/22 05:55:59;;;;;;;38.37;25.00;;;;;;;20.66;87.16;100396.25;4226733;28;24967;-69
2023/06/22 05:58:26;;;;;;;34.93;24.43;;;;;;;20.85;86.22;100391.78;4214254;28;20283;-68
2023/06/22 06:00:52;;;;;;;32.57;22.80;;;;;;;21.14;85.80;100384.91;4230332;28;22769;-70
2023/06/22 06:03:19;;;;;;;31.43;23.67;;;;;;;21.18;84.27;100391.69;4236860;28;20231;-69
2023/06/22 06:05:46;;;;;;;39.47;21.93;;;;;;;21.09;85.83;100405.88;4195452;28;20236;-68
2023/06/22 06:08:12;;;;;;;37.20;23.90;;;;;;;21.15;85.39;100411.38;4232057;28;20362;-65
2023/06/22 06:10:39;;;;;;;31.30;21.07;;;;;;;21.59;83.39;100405.25;4234412;28;20981;-69
2023/06/22 06:13:05;;;;;;;31.97;21.33;;;;;;;21.80;81.90;100413.16;4221962;28;20298;-70
2023/06/22 06:15:33;;;;;;;27.43;19.77;;;;;;;21.82;81.00;100412.94;4222249;28;21944;-68
2023/06/22 06:18:01;;;;;;;30.50;20.00;;;;;;;21.87;81.60;100410.38;4274340;28;20235;-70
2023/06/22 06:20:28;;;;;;;29.30;19.53;;;;;;;22.29;79.89;100423.59;4267037;28;21238;-68
2023/06/22 06:22:56;;;;;;;25.40;18.87;;;;;;;22.43;78.58;100414.16;4238178;28;20245;-67
2023/06/22 06:25:22;;;;;;;24.93;18.60;;;;;;;22.38;78.66;100413.97;4252159;28;20292;-69
2023/06/22 06:27:51;;;;;;;25.37;18.90;;;;;;;22.17;79.90;100413.28;4231714;28;20236;-69
2023/06/22 06:30:18;;;;;;;25.40;17.63;;;;;;;22.47;78.48;100407.09;4240577;28;20314;-67
2023/06/22 06:32:46;;;;;;;27.67;18.47;;;;;;;22.10;79.66;100406.16;4221925;28;20249;-66
2023/06/22 06:35:15;;;;;;;28.30;17.93;;;;;;;22.51;77.98;100414.94;4240336;28;21160;-68
2023/06/22 06:37:47;;;;;;;27.03;16.70;;;;;;;22.29;78.53;100415.31;4253348;28;21688;-70
2023/06/22 06:40:15;;;;;;;23.07;16.20;;;;;;;22.77;76.93;100411.91;4235927;28;21537;-70
2023/06/22 06:42:45;;;;;;;25.43;16.07;;;;;;;23.24;74.46;100405.00;4237882;28;22013;-71
2023/06/22 06:45:16;;;;;;;23.53;15.57;;;;;;;24.26;70.48;100411.59;4239871;28;20228;-69
2023/06/22 06:47:43;;;;;;;18.00;13.10;;;;;;;23.99;69.60;100402.91;4249838;28;20232;-72
2023/06/22 06:50:10;;;;;;;20.07;12.53;;;;;;;23.76;70.95;100406.41;4234158;28;22537;-68
2023/06/22 06:52:37;;;;;;;19.00;12.97;;;;;;;23.33;72.64;100413.84;4238264;28;20405;-69
2023/06/22 06:55:09;;;;;;;18.70;12.43;;;;;;;24.30;68.93;100410.03;4236496;28;20232;-69
2023/06/22 06:57:40;;;;;;;16.40;10.70;;;;;;;26.00;62.49;100398.03;4242309;28;21750;-69
2023/06/22 07:00:13;;;;;;;18.57;10.87;;;;;;;26.08;63.58;100403.22;4218849;28;21176;-70
2023/06/22 07:02:41;;;;;;;17.30;10.60;;;;;;;25.97;62.66;100406.84;4230036;28;20281;-69
2023/06/22 07:05:08;;;;;;;15.40;10.67;;;;;;;24.59;65.73;100407.38;4247827;28;20235;-70
2023/06/22 07:07:36;;;;;;;16.23;10.17;;;;;;;25.43;64.44;100405.31;4242197;28;20479;-72
2023/06/22 07:10:06;;;;;;;14.53;10.73;;;;;;;25.66;62.45;100406.31;4228692;28;20359;-68
2023/06/22 07:12:33;;;;;;;18.43;9.70;;;;;;;26.36;60.01;100393.91;4234693;28;20235;-71
2023/06/22 07:15:04;;;;;;;13.60;8.70;;;;;;;28.15;54.11;100413.06;4238467;28;21587;-71
2023/06/22 07:17:31;;;;;;;14.17;8.40;;;;;;;27.56;55.92;100410.25;4233036;28;20233;-71
2023/06/22 07:19:58;;;;;;;12.23;7.97;;;;;;;28.41;52.99;100410.50;4225523;28;20466;-72
2023/06/22 07:22:25;;;;;;;15.33;7.20;;;;;;;27.93;53.61;100423.41;4253554;28;20460;-71
2023/06/22 07:24:51;;;;;;;11.17;6.97;;;;;;;27.88;53.63;100426.16;4255389;28;20247;-70
2023/06/22 07:27:19;;;;;;;11.13;7.57;;;;;;;26.86;57.56;100425.50;4244514;28;20245;-69
2023/06/22 07:29:46;;;;;;;12.43;6.75;;;;;;;26.98;55.59;100425.38;4241249;28;21173;-70
2023/06/22 07:32:13;;;;;;;13.53;6.97;;;;;;;27.13;57.32;100427.53;4228830;28;20242;-68
2023/06/22 07:34:40;;;;;;;13.13;7.63;;;;;;;27.02;57.28;100429.34;4230563;28;20303;-68
2023/06/22 07:37:06;;;;;;;12.60;7.53;;;;;;;26.46;58.79;100428.50;4244044;28;21175;-68
2023/06/22 07:39:33;;;;;;;10.47;6.70;;;;;;;26.47;58.60;100428.25;4258193;28;20235;-68
2023/06/22 07:42:00;;;;;;;12.23;7.07;;;;;;;26.21;58.00;100425.06;4230783;28;20243;-68
2023/06/22 07:44:26;;;;;;;11.70;6.10;;;;;;;26.63;57.48;100426.53;4247417;28;20236;-69
2023/06/22 07:46:53;;;;;;;13.97;6.70;;;;;;;26.31;56.40;100423.56;4246952;28;20261;-70
2023/06/22 07:49:20;;;;;;;9.20;6.30;;;;;;;26.60;56.55;100427.03;4284561;28;21660;-67
2023/06/22 07:51:47;;;;;;;9.43;5.17;;;;;;;27.40;52.48;100426.72;4242621;28;20839;-67
2023/06/22 07:54:15;;;;;;;10.53;6.13;;;;;;;27.09;53.41;100428.31;4249519;28;20522;-69
2023/06/22 07:56:43;;;;;;;10.50;5.67;;;;;;;26.77;54.80;100432.63;4229697;28;20239;-67
2023/06/22 07:59:10;;;;;;;12.00;6.40;;;;;;;26.40;57.34;100433.13;4267078;28;20234;-67
2023/06/22 08:01:37;;;;;;;9.70;6.33;;;;;;;26.23;57.44;100431.22;4246108;28;21067;-69
2023/06/22 08:04:05;;;;;;;9.43;6.10;;;;;;;26.58;56.67;100427.31;4224113;28;20532;-70
2023/06/22 08:06:32;;;;;;;10.97;5.70;;;;;;;26.30;56.91;100431.03;4253273;28;24791;-69
2023/06/22 08:08:59;;;;;;;9.63;5.97;;;;;;;26.47;55.15;100432.94;4238603;28;20579;-69
2023/06/22 08:11:26;;;;;;;9.97;5.63;;;;;;;25.90;55.58;100426.44;4269329;28;22294;-68
2023/06/22 08:13:52;;;;;;;11.67;5.50;;;;;;;25.70;55.91;100405.56;4242852;28;20234;-69
2023/06/22 08:16:19;;;;;;;10.43;5.10;;;;;;;26.46;54.28;100412.69;4253853;28;20515;-67
2023/06/22 08:18:47;;;;;;;10.23;5.17;;;;;;;26.31;54.52;100423.56;4240555;28;20614;-70
2023/06/22 08:21:13;;;;;;;7.43;5.03;;;;;;;26.17;55.27;100423.03;4265488;28;20263;-69
2023/06/22 08:23:40;;;;;;;10.00;5.13;;;;;;;26.18;54.26;100419.19;4220264;28;20312;-68
2023/06/22 08:26:06;;;;;;;6.07;4.18;;;;;;;26.60;52.12;100420.66;4233806;28;20227;-69
2023/06/22 08:28:33;;;;;;;8.73;4.65;;;;;;;26.21;52.85;100416.75;4237897;28;21407;-69
2023/06/22 08:31:02;;;;;;;7.13;4.47;;;;;;;25.99;54.28;100427.69;4246453;28;22977;-67
2023/06/22 08:33:30;;;;;;;11.50;5.27;;;;;;;26.20;54.55;100417.81;4251431;28;20243;-66
2023/06/22 08:35:58;;;;;;;17.60;5.20;;;;;;;26.47;54.66;100422.72;4250035;28;21406;-67
2023/06/22 08:38:25;;;;;;;7.93;5.03;;;;;;;25.91;54.50;100400.38;4253189;28;22141;-70
2023/06/22 08:40:51;;;;;;;14.47;5.40;;;;;;;25.83;54.94;100425.75;4235498;28;22187;-55
2023/06/22 08:43:18;;;;;;;8.85;4.80;;;;;;;25.83;55.94;100423.00;4253984;28;20239;-74
2023/06/22 08:45:45;;;;;;;11.93;4.63;;;;;;;26.39;56.57;100425.91;4242307;28;20644;-69
2023/06/22 08:48:12;;;;;;;11.63;4.63;;;;;;;26.22;54.60;100421.19;4213844;28;21702;-69
2023/06/22 08:50:40;;;;;;;9.57;4.47;;;;;;;26.24;53.96;100427.34;4237360;28;20240;-67
2023/06/22 08:53:07;;;;;;;6.70;4.03;;;;;;;26.30;53.52;100432.97;4243555;28;20238;-68
2023/06/22 08:55:34;;;;;;;7.97;4.10;;;;;;;26.20;54.21;100436.41;4250804;28;20270;-70
2023/06/22 08:58:00;;;;;;;9.10;4.03;;;;;;;25.95;54.94;100445.94;4234251;28;21151;-70
2023/06/22 09:00:29;;;;;;;8.57;4.10;;;;;;;26.10;53.29;100440.69;4232267;28;20243;-68
2023/06/22 09:02:58;;;;;;;11.00;4.55;;;;;;;26.17;54.15;100434.97;4261579;28;22917;-67
2023/06/22 09:05:26;;;;;;;5.73;3.97;;;;;;;26.62;53.14;100437.91;4217731;28;20338;-66
2023/06/22 09:07:56;;;;;;;8.50;4.10;;;;;;;26.65;51.31;100424.34;4238663;28;20247;-67
2023/06/22 09:10:22;;;;;;;5.63;3.50;;;;;;;26.79;51.30;100449.84;4249183;28;20243;-68
2023/06/22 09:12:49;;;;;;;6.20;3.78;;;;;;;26.61;50.78;100430.66;4243019;28;21582;-67
2023/06/22 09:15:16;;;;;;;14.35;3.70;;;;;;;26.34;49.24;100436.91;4235009;28;21153;-68
2023/06/22 09:17:46;;;;;;;5.40;3.25;;;;;;;26.66;48.31;100430.75;4227635;28;20597;-67
2023/06/22 09:20:13;;;;;;;8.03;3.70;;;;;;;26.98;48.41;100435.66;4233730;28;20251;-71
2023/06/22 09:22:40;;;;;;;8.17;3.17;;;;;;;26.43;48.73;100424.28;4235175;28;23097;-67
2023/06/22 09:25:07;;;;;;;6.63;3.83;;;;;;;25.91;49.87;100417.88;4238018;28;20867;-68
2023/06/22 09:27:34;;;;;;;4.53;3.43;;;;;;;26.04;49.18;100426.94;4225298;28;20247;-67
2023/06/22 09:30:00;;;;;;;4.83;3.60;;;;;;;26.00;49.90;100426.59;4232542;28;20269;-69
2023/06/22 09:32:27;;;;;;;7.23;3.90;;;;;;;26.20;51.35;100409.50;4233861;28;20314;-67
2023/06/22 09:34:54;;;;;;;6.30;3.77;;;;;;;26.38;50.91;100421.44;4236551;28;20417;-68
2023/06/22 09:37:21;;;;;;;6.28;3.00;;;;;;;26.73;47.04;100418.38;4304113;28;20565;-68
2023/06/22 09:39:51;;;;;;;8.43;3.15;;;;;;;27.07;46.26;100411.03;4529892;28;20227;-69
2023/06/22 09:42:20;;;;;;;7.73;3.03;;;;;;;27.56;43.82;100424.16;4497294;28;20232;-67
2023/06/22 09:44:48;;;;;;;7.95;3.08;;;;;;;27.14;45.67;100425.59;4440248;28;20240;-69
2023/06/22 09:47:15;;;;;;;10.55;3.30;;;;;;;26.60;46.64;100424.25;4432574;28;20522;-69
2023/06/22 09:49:43;;;;;;;4.50;2.90;;;;;;;26.71;46.42;100412.22;4482207;28;20239;-69
2023/06/22 09:52:14;;;;;;;7.27;3.53;;;;;;;26.66;46.46;100416.84;4298498;28;20233;-68
2023/06/22 09:54:40;;;;;;;6.43;3.45;;;;;;;26.56;48.81;100418.38;4310033;28;21360;-72
2023/06/22 09:57:07;;;;;;;9.20;3.63;;;;;;;26.62;47.92;100412.91;4312726;28;20345;-68
2023/06/22 09:59:35;;;;;;;5.63;3.50;;;;;;;26.86;47.51;100417.16;4276338;28;21344;-68
2023/06/22 10:02:02;;;;;;;20.30;3.60;;;;;;;26.95;48.46;100414.81;4420476;28;20232;-68
2023/06/22 10:04:29;;;;;;;7.63;3.05;;;;;;;26.84;47.85;100407.41;4358566;28;20539;-67
2023/06/22 10:06:57;;;;;;;9.07;3.83;;;;;;;26.87;47.09;100421.63;4333905;28;20254;-67
2023/06/22 10:09:24;;;;;;;6.75;4.00;;;;;;;26.95;47.12;100416.72;4429221;28;20239;-66
2023/06/22 10:11:51;;;;;;;10.68;3.50;;;;;;;26.71;47.40;100408.59;4381294;28;20400;-68
2023/06/22 10:14:19;;;;;;;7.30;4.00;;;;;;;26.70;49.01;100416.09;4353663;28;20739;-66
2023/06/22 10:16:49;;;;;;;5.10;3.50;;;;;;;27.11;48.33;100410.28;4425329;28;20240;-67
2023/06/22 10:19:16;;;;;;;8.00;3.80;;;;;;;27.48;47.21;100419.91;4444456;28;20229;-68
2023/06/22 10:21:43;;;;;;;8.53;3.60;;;;;;;27.42;47.05;100419.00;4216845;28;21834;-68
2023/06/22 10:24:10;;;;;;;4.93;3.20;;;;;;;27.80;45.92;100430.22;4222463;28;20223;-67
2023/06/22 10:26:37;;;;;;;5.78;3.72;;;;;;;27.99;44.92;100419.56;4232485;28;20276;-70
2023/06/22 10:29:04;;;;;;;5.78;3.78;;;;;;;27.92;46.34;100418.94;4232914;28;26131;-68
2023/06/22 10:31:33;;;;;;;4.55;3.67;;;;;;;28.10;44.19;100412.19;4226569;28;20234;-68
2023/06/22 10:34:00;;;;;;;6.72;3.28;;;;;;;28.30;42.98;100405.94;4228080;28;20508;-67
2023/06/22 10:36:27;;;;;;;6.50;3.30;;;;;;;28.23;43.72;100416.47;4219311;28;20234;-68
2023/06/22 10:38:55;;;;;;;8.70;3.92;;;;;;;27.81;45.65;100407.75;4250401;28;20662;-68
2023/06/22 10:41:21;;;;;;;8.20;3.80;;;;;;;27.29;47.18;100403.53;4231621;28;20294;-67
2023/06/22 10:43:48;;;;;;;9.87;4.07;;;;;;;27.40;46.64;100404.50;4232685;28;20290;-67
2023/06/22 10:46:14;;;;;;;7.57;4.40;;;;;;;27.28;46.16;100404.63;4243590;28;21995;-69
2023/06/22 10:48:41;;;;;;;9.10;3.65;;;;;;;27.54;45.87;100406.88;4231856;28;21672;-68
2023/06/22 10:51:08;;;;;;;7.67;3.77;;;;;;;27.50;46.11;100406.56;4232379;28;22286;-71
2023/06/22 10:53:37;;;;;;;8.40;4.45;;;;;;;27.55;46.84;100397.44;4237646;28;25319;-71
2023/06/22 10:56:04;;;;;;;6.88;4.45;;;;;;;27.41;46.62;100400.63;4235591;28;20238;-68
2023/06/22 10:58:30;;;;;;;10.02;3.95;;;;;;;27.22;47.81;100389.00;4248975;28;20517;-71
2023/06/22 11:00:57;;;;;;;7.88;3.78;;;;;;;27.77;47.04;100394.63;4236344;28;20226;-67
2023/06/22 11:03:23;;;;;;;8.77;4.15;;;;;;;27.66;45.33;100400.06;4262539;28;20595;-69
2023/06/22 11:05:50;;;;;;;8.98;4.18;;;;;;;27.18;47.01;100398.97;4236988;28;20243;-69
2023/06/22 11:08:17;;;;;;;9.15;3.80;;;;;;;27.45;46.49;100387.06;4238228;28;20457;-68
2023/06/22 11:10:43;;;;;;;9.65;3.90;;;;;;;27.32;47.19;100382.72;4229241;28;20247;-66
2023/06/22 11:13:10;;;;;;;27.70;7.45;;;;;;;27.66;46.66;100393.69;4234478;28;20307;-45
2023/06/22 11:15:39;;;;;;;13.07;5.07;;;;;;;27.99;46.44;100392.59;4285301;28;20309;-43
2023/06/22 11:18:06;;;;;;;7.85;4.07;;;;;;;27.75;45.42;100386.56;4224347;28;20310;-70